createdAt,value
2022-09-26T00:01:11.767Z,22.98
2022-09-26T00:03:38.843Z,22.98
2022-09-26T00:06:08.001Z,22.96
2022-09-26T00:08:36.528Z,22.96
2022-09-26T00:11:07.931Z,22.96
2022-09-26T00:13:37.112Z,22.95
2022-09-26T00:16:04.167Z,22.91
2022-09-26T00:18:30.976Z,22.94
2022-09-26T00:21:24.817Z,22.94
2022-09-26T00:23:51.936Z,22.93
2022-09-26T00:26:21.253Z,22.93
2022-09-26T00:28:48.967Z,22.91
2022-09-26T00:31:21.800Z,22.91
2022-09-26T00:33:48.754Z,22.91
2022-09-26T00:36:15.453Z,22.90
2022-09-26T00:38:42.143Z,22.90
2022-09-26T00:41:08.951Z,22.91
2022-09-26T00:43:47.650Z,22.90
2022-09-26T00:46:37.676Z,22.89
2022-09-26T00:49:22.687Z,22.88
2022-09-26T00:52:00.171Z,22.88
2022-09-26T00:54:29.722Z,22.87
2022-09-26T00:57:04.101Z,22.87
2022-09-26T00:59:54.132Z,22.86
2022-09-26T01:04:42.426Z,22.87
2022-09-26T01:07:17.030Z,22.82
2022-09-26T01:09:44.622Z,22.83
2022-09-26T01:12:12.149Z,22.85
2022-09-26T01:14:41.533Z,22.77
2022-09-26T01:17:10.028Z,22.78
2022-09-26T01:20:08.030Z,22.84
2022-09-26T01:22:56.512Z,22.84
2022-09-26T01:26:00.131Z,22.82
2022-09-26T01:28:42.077Z,22.81
2022-09-26T01:31:30.468Z,22.80
2022-09-26T01:33:56.978Z,22.79
2022-09-26T01:36:39.286Z,22.79
2022-09-26T01:39:29.068Z,22.79
2022-09-26T01:42:04.961Z,22.78
2022-09-26T01:44:47.272Z,22.78
2022-09-26T01:47:18.136Z,22.78
2022-09-26T01:49:57.548Z,22.78
2022-09-26T01:52:46.072Z,22.78
2022-09-26T01:55:19.161Z,22.77
2022-09-26T01:58:16.193Z,22.77
2022-09-26T02:00:46.936Z,22.77
2022-09-26T02:03:18.056Z,22.74
2022-09-26T02:05:59.799Z,22.76
2022-09-26T02:08:43.954Z,22.77
2022-09-26T02:11:18.478Z,22.77
2022-09-26T02:14:03.843Z,22.77
2022-09-26T02:16:35.583Z,22.77
2022-09-26T02:19:50.612Z,22.75
2022-09-26T02:22:17.854Z,22.75
2022-09-26T02:24:45.774Z,22.75
2022-09-26T02:27:12.428Z,22.73
2022-09-26T02:29:40.464Z,22.74
2022-09-26T02:32:17.163Z,22.73
2022-09-26T02:34:47.197Z,22.73
2022-09-26T02:37:15.930Z,22.74
2022-09-26T02:39:45.176Z,22.73
2022-09-26T02:42:23.741Z,22.73
2022-09-26T02:45:16.921Z,22.72
2022-09-26T02:48:16.108Z,22.71
2022-09-26T02:50:48.957Z,22.72
2022-09-26T02:53:49.491Z,22.71
2022-09-26T02:56:52.668Z,22.71
2022-09-26T02:59:45.988Z,22.68
2022-09-26T03:02:15.969Z,22.64
2022-09-26T03:04:55.077Z,22.69
2022-09-26T03:07:29.959Z,22.69
2022-09-26T03:10:00.553Z,22.69
2022-09-26T03:12:29.882Z,22.68
2022-09-26T03:14:58.900Z,22.64
2022-09-26T03:17:28.096Z,22.68
2022-09-26T03:20:01.600Z,22.68
2022-09-26T03:22:30.133Z,22.68
2022-09-26T03:24:59.345Z,22.67
2022-09-26T03:27:27.198Z,22.68
2022-09-26T03:29:54.473Z,22.68
2022-09-26T03:32:24.019Z,22.66
2022-09-26T03:37:08.094Z,22.66
2022-09-26T03:39:34.777Z,22.66
2022-09-26T03:42:08.179Z,22.65
2022-09-26T03:44:34.876Z,22.65
2022-09-26T03:47:15.467Z,22.64
2022-09-26T03:49:44.614Z,22.65
2022-09-26T03:52:13.356Z,22.64
2022-09-26T03:54:41.757Z,22.64
2022-09-26T03:57:10.469Z,22.64
2022-09-26T03:59:42.516Z,22.64
2022-09-26T04:02:12.342Z,22.64
2022-09-26T04:04:43.284Z,22.64
2022-09-26T04:07:11.005Z,22.64
2022-09-26T04:09:38.310Z,22.64
2022-09-26T04:12:05.147Z,22.63
2022-09-26T04:14:34.174Z,22.64
2022-09-26T04:17:00.843Z,22.63
2022-09-26T04:19:38.077Z,22.63
2022-09-26T04:22:08.112Z,22.63
2022-09-26T04:24:35.016Z,22.63
2022-09-26T04:27:01.760Z,22.62
2022-09-26T04:29:30.141Z,22.63
2022-09-26T04:32:09.088Z,22.62
2022-09-26T04:34:50.501Z,22.62
2022-09-26T04:37:17.117Z,22.63
2022-09-26T04:39:43.735Z,22.62
2022-09-26T04:42:10.565Z,22.61
2022-09-26T04:44:37.119Z,22.62
2022-09-26T04:47:04.026Z,22.62
2022-09-26T04:49:53.484Z,22.62
2022-09-26T04:52:20.266Z,22.61
2022-09-26T04:54:47.979Z,22.62
2022-09-26T04:57:19.339Z,22.62
2022-09-26T04:59:46.481Z,22.60
2022-09-26T05:02:13.240Z,22.61
2022-09-26T05:04:43.526Z,22.61
2022-09-26T05:07:10.191Z,22.61
2022-09-26T05:09:37.840Z,22.62
2022-09-26T05:12:13.348Z,22.61
2022-09-26T05:14:44.625Z,22.61
2022-09-26T05:19:38.833Z,22.61
2022-09-26T05:22:25.673Z,22.61
2022-09-26T05:25:12.457Z,22.61
2022-09-26T05:27:39.906Z,22.61
2022-09-26T05:30:07.213Z,22.60
2022-09-26T05:32:34.228Z,22.61
2022-09-26T05:35:00.837Z,22.61
2022-09-26T05:37:30.231Z,22.62
2022-09-26T05:40:15.370Z,22.62
2022-09-26T05:42:47.907Z,22.62
2022-09-26T05:45:15.671Z,22.64
2022-09-26T05:47:43.001Z,22.63
2022-09-26T05:50:10.238Z,22.64
2022-09-26T05:52:39.097Z,22.64
2022-09-26T05:55:07.384Z,22.64
2022-09-26T05:58:07.605Z,22.64
2022-09-26T06:00:52.824Z,22.64
2022-09-26T06:03:19.949Z,22.64
2022-09-26T06:06:07.948Z,22.66
2022-09-26T06:08:36.829Z,22.66
2022-09-26T06:11:29.477Z,22.65
2022-09-26T06:13:59.244Z,22.66
2022-09-26T06:16:26.758Z,22.66
2022-09-26T06:18:55.482Z,22.66
2022-09-26T06:21:23.683Z,22.66
2022-09-26T06:23:58.500Z,22.66
2022-09-26T06:26:29.041Z,22.68
2022-09-26T06:28:58.021Z,22.67
2022-09-26T06:31:26.624Z,22.67
2022-09-26T06:34:13.045Z,22.66
2022-09-26T06:36:51.596Z,22.68
2022-09-26T06:41:40.954Z,22.67
2022-09-26T06:44:42.956Z,22.63
2022-09-26T06:47:24.965Z,22.66
2022-09-26T06:50:11.608Z,22.66
2022-09-26T06:52:44.043Z,22.67
2022-09-26T06:55:11.947Z,22.67
2022-09-26T06:57:43.062Z,22.67
2022-09-26T07:00:15.963Z,22.66
2022-09-26T07:03:02.652Z,22.68
2022-09-26T07:05:48.110Z,22.68
2022-09-26T07:08:15.101Z,22.67
2022-09-26T07:10:41.717Z,22.68
2022-09-26T07:13:13.716Z,22.69
2022-09-26T07:15:45.008Z,22.68
2022-09-26T07:18:30.401Z,22.71
2022-09-26T07:21:05.208Z,22.71
2022-09-26T07:23:58.552Z,22.72
2022-09-26T07:26:26.150Z,22.75
2022-09-26T07:28:54.860Z,22.75
2022-09-26T07:31:24.185Z,22.78
2022-09-26T07:34:14.651Z,22.81
2022-09-26T07:36:47.516Z,22.79
2022-09-26T07:39:14.406Z,22.75
2022-09-26T07:41:45.825Z,22.82
2022-09-26T07:47:19.063Z,22.79
2022-09-26T07:50:04.906Z,22.79
2022-09-26T07:52:37.319Z,22.78
2022-09-26T07:55:27.813Z,22.79
2022-09-26T07:58:09.624Z,22.77
2022-09-26T08:00:48.966Z,22.78
2022-09-26T08:03:48.051Z,22.79
2022-09-26T08:06:26.047Z,22.78
2022-09-26T08:08:54.245Z,22.80
2022-09-26T08:11:40.522Z,22.80
2022-09-26T08:14:14.374Z,22.74
2022-09-26T08:16:55.926Z,22.85
2022-09-26T08:19:24.475Z,22.85
2022-09-26T08:21:51.356Z,22.87
2022-09-26T08:24:19.345Z,22.87
2022-09-26T08:27:14.117Z,22.86
2022-09-26T08:29:42.788Z,22.88
2022-09-26T08:32:11.336Z,22.88
2022-09-26T08:34:40.885Z,22.90
2022-09-26T08:37:34.039Z,22.89
2022-09-26T08:40:28.713Z,22.89
2022-09-26T08:43:13.925Z,22.90
2022-09-26T08:46:33.354Z,22.92
2022-09-26T08:49:29.186Z,22.93
2022-09-26T08:51:59.736Z,22.88
2022-09-26T08:54:44.986Z,22.94
2022-09-26T08:57:49.561Z,22.96
2022-09-26T09:00:25.187Z,22.95
2022-09-26T09:03:02.101Z,22.97
2022-09-26T09:05:39.158Z,23.00
2022-09-26T09:08:12.871Z,23.03
2022-09-26T09:11:12.137Z,23.05
2022-09-26T09:14:01.520Z,23.07
2022-09-26T09:16:57.133Z,23.10
2022-09-26T09:20:15.057Z,23.10
2022-09-26T09:23:03.260Z,23.10
2022-09-26T09:25:49.816Z,23.10
2022-09-26T09:28:35.186Z,23.12
2022-09-26T09:31:09.601Z,23.14
2022-09-26T09:33:55.572Z,23.15
2022-09-26T09:36:31.809Z,23.13
2022-09-26T09:39:37.748Z,23.19
2022-09-26T09:42:28.479Z,23.21
2022-09-26T09:45:09.279Z,23.23
2022-09-26T09:47:39.384Z,23.25
2022-09-26T09:50:20.225Z,23.20
2022-09-26T09:53:06.593Z,23.29
2022-09-26T09:55:54.257Z,23.33
2022-09-26T09:58:42.265Z,23.39
2022-09-26T10:01:26.876Z,23.44
2022-09-26T10:04:20.656Z,23.46
2022-09-26T10:06:48.414Z,23.49
2022-09-26T10:09:35.999Z,23.50
2022-09-26T10:12:28.786Z,23.52
2022-09-26T10:15:36.313Z,23.54
2022-09-26T10:18:30.563Z,23.57
2022-09-26T10:21:17.869Z,23.58
2022-09-26T10:23:50.437Z,23.58
2022-09-26T10:26:36.869Z,23.60
2022-09-26T10:29:23.340Z,23.61
2022-09-26T10:31:56.252Z,23.61
2022-09-26T10:34:31.266Z,23.63
2022-09-26T10:37:20.463Z,23.62
2022-09-26T10:40:14.814Z,23.66
2022-09-26T10:45:29.189Z,23.67
2022-09-26T10:48:24.784Z,23.69
2022-09-26T10:51:37.502Z,23.69
2022-09-26T10:54:17.049Z,23.70
2022-09-26T10:56:51.197Z,23.67
2022-09-26T10:59:24.413Z,23.72
2022-09-26T11:01:55.902Z,23.72
2022-09-26T11:04:45.005Z,23.72
2022-09-26T11:07:52.333Z,23.74
2022-09-26T11:10:41.496Z,23.74
2022-09-26T11:13:23.889Z,23.74
2022-09-26T11:16:22.649Z,23.75
2022-09-26T11:19:08.981Z,23.56
2022-09-26T11:21:51.405Z,23.76
2022-09-26T11:24:37.264Z,23.77
2022-09-26T11:27:33.444Z,23.78
2022-09-26T11:30:14.518Z,23.78
2022-09-26T11:32:55.276Z,23.79
2022-09-26T11:35:53.194Z,23.79
2022-09-26T11:38:46.388Z,23.80
2022-09-26T11:41:38.291Z,23.81
2022-09-26T11:44:24.119Z,23.82
2022-09-26T11:47:47.647Z,23.84
2022-09-26T11:50:40.093Z,23.84
2022-09-26T11:53:19.691Z,23.86
2022-09-26T11:56:08.135Z,23.87
2022-09-26T11:58:48.258Z,23.88
2022-09-26T12:01:38.947Z,23.89
2022-09-26T12:04:12.266Z,23.90
2022-09-26T12:06:53.983Z,23.91
2022-09-26T12:09:41.922Z,23.92
2022-09-26T12:12:34.088Z,23.93
2022-09-26T12:15:30.314Z,23.95
2022-09-26T12:18:13.405Z,23.97
2022-09-26T12:21:22.406Z,23.96
2022-09-26T12:23:59.672Z,23.98
2022-09-26T12:26:49.783Z,23.99
2022-09-26T12:29:23.474Z,23.98
2022-09-26T12:32:14.592Z,23.99
2022-09-26T12:35:07.080Z,23.99
2022-09-26T12:38:15.798Z,23.99
2022-09-26T12:41:02.936Z,24.00
2022-09-26T12:43:56.673Z,24.00
2022-09-26T12:46:43.119Z,24.01
2022-09-26T12:49:22.893Z,24.01
2022-09-26T12:51:55.689Z,24.03
2022-09-26T12:54:57.497Z,24.02
2022-09-26T12:57:57.141Z,24.03
2022-09-26T13:00:25.059Z,24.03
2022-09-26T13:03:14.220Z,24.04
2022-09-26T13:05:50.432Z,24.03
2022-09-26T13:08:36.760Z,24.03
2022-09-26T13:11:09.287Z,24.04
2022-09-26T13:14:09.613Z,24.02
2022-09-26T13:17:05.903Z,24.02
2022-09-26T13:19:41.115Z,24.02
2022-09-26T13:22:13.947Z,24.02
2022-09-26T13:25:17.762Z,24.02
2022-09-26T13:27:48.529Z,24.02
2022-09-26T13:30:28.023Z,24.02
2022-09-26T13:33:07.044Z,24.02
2022-09-26T13:35:36.693Z,24.02
2022-09-26T13:38:28.461Z,24.02
2022-09-26T13:41:11.075Z,24.02
2022-09-26T13:44:28.821Z,24.01
2022-09-26T13:47:19.695Z,24.02
2022-09-26T13:50:13.493Z,24.01
2022-09-26T13:53:00.847Z,24.00
2022-09-26T13:55:29.140Z,24.01
2022-09-26T13:58:06.730Z,24.00
2022-09-26T14:00:42.596Z,24.00
2022-09-26T14:03:19.108Z,24.02
2022-09-26T14:05:51.069Z,24.02
2022-09-26T14:08:55.457Z,24.05
2022-09-26T14:13:43.671Z,24.05
2022-09-26T14:16:28.734Z,24.06
2022-09-26T14:19:04.740Z,24.06
2022-09-26T14:21:35.650Z,24.00
2022-09-26T14:24:21.681Z,24.08
2022-09-26T14:27:04.170Z,24.07
2022-09-26T14:29:44.642Z,24.08
2022-09-26T14:32:27.973Z,24.02
2022-09-26T14:34:59.163Z,24.07
2022-09-26T14:37:40.272Z,24.10
2022-09-26T14:40:09.607Z,24.09
2022-09-26T14:43:16.665Z,24.11
2022-09-26T14:45:50.000Z,24.10
2022-09-26T14:48:20.084Z,24.11
2022-09-26T14:50:50.052Z,24.11
2022-09-26T14:53:28.937Z,24.12
2022-09-26T14:56:16.115Z,24.12
2022-09-26T14:58:42.654Z,24.12
2022-09-26T15:01:20.041Z,24.11
2022-09-26T15:04:03.708Z,24.10
2022-09-26T15:06:36.120Z,24.10
2022-09-26T15:09:32.189Z,24.13
2022-09-26T15:12:03.921Z,24.14
2022-09-26T15:14:45.161Z,24.16
2022-09-26T15:17:18.540Z,24.18
2022-09-26T15:19:52.010Z,24.18
2022-09-26T15:22:21.017Z,24.13
2022-09-26T15:24:54.189Z,24.20
2022-09-26T15:27:28.025Z,24.19
2022-09-26T15:30:03.748Z,24.19
2022-09-26T15:32:33.395Z,24.17
2022-09-26T15:35:02.667Z,24.14
2022-09-26T15:37:33.717Z,24.16
2022-09-26T15:40:25.325Z,24.16
2022-09-26T15:43:12.755Z,24.15
2022-09-26T15:45:46.474Z,24.12
2022-09-26T15:48:18.893Z,24.11
2022-09-26T15:51:19.916Z,24.13
2022-09-26T15:53:50.624Z,24.16
2022-09-26T15:56:35.414Z,24.16
2022-09-26T15:59:12.469Z,24.17
2022-09-26T16:01:42.588Z,24.19
2022-09-26T16:04:27.284Z,24.20
2022-09-26T16:07:04.706Z,24.20
2022-09-26T16:09:39.812Z,24.19
2022-09-26T16:12:15.645Z,24.17
2022-09-26T16:14:51.557Z,24.18
2022-09-26T16:17:26.674Z,24.16
2022-09-26T16:20:05.953Z,24.13
2022-09-26T16:22:45.383Z,24.11
2022-09-26T16:25:22.907Z,24.09
2022-09-26T16:28:00.055Z,24.06
2022-09-26T16:30:30.166Z,24.05
2022-09-26T16:33:33.693Z,24.04
2022-09-26T16:36:15.084Z,24.04
2022-09-26T16:38:41.763Z,24.04
2022-09-26T16:42:03.783Z,24.04
2022-09-26T16:44:36.276Z,24.05
2022-09-26T16:47:06.661Z,24.05
2022-09-26T16:49:46.746Z,24.06
2022-09-26T16:52:26.980Z,24.06
2022-09-26T16:54:59.673Z,24.06
2022-09-26T16:57:30.429Z,23.98
2022-09-26T17:00:41.760Z,24.05
2022-09-26T17:03:24.169Z,24.05
2022-09-26T17:05:52.566Z,24.03
2022-09-26T17:08:19.544Z,24.03
2022-09-26T17:10:46.248Z,24.06
2022-09-26T17:13:22.705Z,24.06
2022-09-26T17:15:52.998Z,24.06
2022-09-26T17:18:23.066Z,24.06
2022-09-26T17:20:50.169Z,24.03
2022-09-26T17:23:38.889Z,24.07
2022-09-26T17:26:06.782Z,24.07
2022-09-26T17:28:43.197Z,24.00
2022-09-26T17:31:19.501Z,24.08
2022-09-26T17:33:49.924Z,24.08
2022-09-26T17:36:24.953Z,24.08
2022-09-26T17:38:52.121Z,24.09
2022-09-26T17:41:18.893Z,24.10
2022-09-26T17:43:45.565Z,24.11
2022-09-26T17:46:15.841Z,24.11
2022-09-26T17:48:44.437Z,24.11
2022-09-26T17:51:14.662Z,24.12
2022-09-26T17:53:50.410Z,24.12
2022-09-26T17:56:21.089Z,24.12
2022-09-26T17:58:49.410Z,24.12
2022-09-26T18:01:32.532Z,24.12
2022-09-26T18:04:02.423Z,24.12
2022-09-26T18:06:33.396Z,24.11
2022-09-26T18:09:07.889Z,24.11
2022-09-26T18:11:36.247Z,24.11
2022-09-26T18:14:08.357Z,24.11
2022-09-26T18:16:35.211Z,24.11
2022-09-26T18:19:06.252Z,24.11
2022-09-26T18:21:33.932Z,24.10
2022-09-26T18:24:02.674Z,24.10
2022-09-26T18:26:33.368Z,24.10
2022-09-26T18:29:08.251Z,24.10
2022-09-26T18:31:41.518Z,24.09
2022-09-26T18:34:20.600Z,24.08
2022-09-26T18:36:52.795Z,24.09
2022-09-26T18:39:19.509Z,24.10
2022-09-26T18:41:48.509Z,24.11
2022-09-26T18:44:19.867Z,24.10
2022-09-26T18:46:48.137Z,24.07
2022-09-26T18:51:45.740Z,24.11
2022-09-26T18:54:14.881Z,24.13
2022-09-26T18:57:00.488Z,24.14
2022-09-26T18:59:31.005Z,24.14
2022-09-26T19:02:01.269Z,24.14
2022-09-26T19:04:30.692Z,24.16
2022-09-26T19:07:04.805Z,24.17
2022-09-26T19:09:33.857Z,24.18
2022-09-26T19:12:01.435Z,24.18
2022-09-26T19:14:30.205Z,24.18
2022-09-26T19:16:58.020Z,24.17
2022-09-26T19:19:25.783Z,24.15
2022-09-26T19:21:56.920Z,24.13
2022-09-26T19:24:23.634Z,24.12
2022-09-26T19:27:04.749Z,24.11
2022-09-26T19:29:43.592Z,24.10
2022-09-26T19:32:23.495Z,24.10
2022-09-26T19:34:56.664Z,24.08
2022-09-26T19:37:23.431Z,24.08
2022-09-26T19:39:52.708Z,24.07
2022-09-26T19:42:20.677Z,24.07
2022-09-26T19:44:47.601Z,24.05
2022-09-26T19:47:16.967Z,24.05
2022-09-26T19:49:47.568Z,23.99
2022-09-26T19:52:23.255Z,24.04
2022-09-26T19:54:51.846Z,24.02
2022-09-26T19:57:20.601Z,24.01
2022-09-26T19:59:48.450Z,24.00
2022-09-26T20:02:18.147Z,24.01
2022-09-26T20:04:44.950Z,24.00
2022-09-26T20:07:14.222Z,23.99
2022-09-26T20:09:41.762Z,23.99
2022-09-26T20:12:09.262Z,23.98
2022-09-26T20:14:36.062Z,23.98
2022-09-26T20:17:13.022Z,23.99
2022-09-26T20:21:53.098Z,23.98
2022-09-26T20:24:20.001Z,23.99
2022-09-26T20:26:48.124Z,23.98
2022-09-26T20:29:16.214Z,23.92
2022-09-26T20:31:43.620Z,23.99
2022-09-26T20:34:14.198Z,23.99
2022-09-26T20:36:44.511Z,24.00
2022-09-26T20:39:16.673Z,24.00
2022-09-26T20:41:44.277Z,23.99
2022-09-26T20:44:17.833Z,24.01
2022-09-26T20:46:50.702Z,24.01
2022-09-26T20:49:25.467Z,24.01
2022-09-26T20:51:53.506Z,24.01
2022-09-26T20:54:32.831Z,23.98
2022-09-26T20:57:01.477Z,24.02
2022-09-26T20:59:29.147Z,24.01
2022-09-26T21:01:57.742Z,24.01
2022-09-26T21:04:32.529Z,24.01
2022-09-26T21:06:59.509Z,24.03
2022-09-26T21:09:26.123Z,24.02
2022-09-26T21:11:52.884Z,24.02
2022-09-26T21:14:19.405Z,24.01
2022-09-26T21:16:50.258Z,24.00
2022-09-26T21:19:22.584Z,24.01
2022-09-26T21:21:56.572Z,24.02
2022-09-26T21:24:50.328Z,23.94
2022-09-26T21:27:17.022Z,24.01
2022-09-26T21:29:43.665Z,24.00
2022-09-26T21:32:17.393Z,24.00
2022-09-26T21:34:54.339Z,24.01
2022-09-26T21:37:21.075Z,24.01
2022-09-26T21:39:47.978Z,24.01
2022-09-26T21:42:14.784Z,24.01
2022-09-26T21:44:46.047Z,24.01
2022-09-26T21:47:12.800Z,23.78
2022-09-26T21:49:39.476Z,24.00
2022-09-26T21:52:10.718Z,24.00
2022-09-26T21:54:42.604Z,24.01
2022-09-26T21:57:30.371Z,23.99
2022-09-26T21:59:58.445Z,23.99
2022-09-26T22:02:25.772Z,23.99
2022-09-26T22:04:52.831Z,23.99
2022-09-26T22:07:19.432Z,23.99
2022-09-26T22:09:46.240Z,23.99
2022-09-26T22:12:12.884Z,23.94
2022-09-26T22:14:39.493Z,23.98
2022-09-26T22:17:06.146Z,23.98
2022-09-26T22:19:33.641Z,23.97
2022-09-26T22:22:01.734Z,23.98
2022-09-26T22:24:28.452Z,23.97
2022-09-26T22:26:55.012Z,23.98
2022-09-26T22:29:21.653Z,23.97
2022-09-26T22:31:48.257Z,23.96
2022-09-26T22:34:15.133Z,23.96
2022-09-26T22:36:41.724Z,23.96
2022-09-26T22:39:08.385Z,23.95
2022-09-26T22:41:34.990Z,23.96
2022-09-26T22:44:02.013Z,23.97
2022-09-26T22:46:29.048Z,23.97
2022-09-26T22:48:56.479Z,23.95
2022-09-26T22:51:23.137Z,23.95
2022-09-26T22:53:50.028Z,23.95
2022-09-26T22:56:18.594Z,23.95
2022-09-26T22:58:54.696Z,23.95
2022-09-26T23:01:28.463Z,23.95
2022-09-26T23:03:56.847Z,23.95
2022-09-26T23:06:24.149Z,23.95
2022-09-26T23:08:51.582Z,23.94
2022-09-26T23:11:18.794Z,23.95
2022-09-26T23:13:46.603Z,23.93
2022-09-26T23:16:17.112Z,23.94
2022-09-26T23:18:44.759Z,23.93
2022-09-26T23:21:13.588Z,23.94
2022-09-26T23:23:43.129Z,23.92
2022-09-26T23:26:31.717Z,23.94
2022-09-26T23:28:59.454Z,23.93
2022-09-26T23:31:27.562Z,23.93
2022-09-26T23:33:55.065Z,23.92
2022-09-26T23:36:22.119Z,23.93
2022-09-26T23:38:49.485Z,23.92
2022-09-26T23:41:16.100Z,23.92
2022-09-26T23:43:46.401Z,23.91
2022-09-26T23:46:13.169Z,23.91
2022-09-26T23:48:39.958Z,23.91
2022-09-26T23:51:06.778Z,23.90
2022-09-26T23:53:33.448Z,23.72
2022-09-26T23:56:13.716Z,23.91
2022-09-26T23:58:40.867Z,23.91
